Terminal Aerodrome Forecast
Issued by NWS Des Moines, IA

Home | Current Version | Previous Version | Text Only | Print | Product List | Glossary On
Versions: 1 2 3 4 5 6 7 8 9 10 11 12 13 14 15 16 17
000
FTUS43 KDMX 260520
TAFALO
TAF
KALO 260520Z 2606/2706 00000KT P6SM SKC
     FM261100 00000KT 3SM BR SKC
     FM261400 17005KT P6SM FEW150=

USA.gov is the U.S. government's official web portal to all federal, state and local government web resources and services.